Time;durP1;ratioP1;P1;durP2;ratioP2;P2;SDS_P1;SDS_P2;PMS_P1;PMS_P2;Temp;Humidity;BMP_temperature;BMP_pressure;BME280_temperature;BME280_humidity;BME280_pressure;Samples;Min_cycle;Max_cycle;Signal;HPM_P1;HPM_P2
2021/05/02 00:00:28;;;;;;;15.97;7.53;;;7.60;91.60;;;;;;5113169;28;20711;-69
2021/05/02 00:02:55;;;;;;;18.77;8.17;;;7.60;91.30;;;;;;5112409;28;20494;-70
2021/05/02 00:05:22;;;;;;;19.70;8.40;;;7.60;91.20;;;;;;5113481;28;20298;-70
2021/05/02 00:07:48;;;;;;;20.43;8.17;;;7.70;91.30;;;;;;5112946;28;20297;-70
2021/05/02 00:10:16;;;;;;;18.43;7.30;;;7.70;91.30;;;;;;5112471;28;20297;-69
2021/05/02 00:12:43;;;;;;;18.87;7.83;;;7.60;91.20;;;;;;5113008;28;20079;-70
2021/05/02 00:15:11;;;;;;;17.63;7.97;;;7.60;91.40;;;;;;5113071;28;20346;-69
2021/05/02 00:17:39;;;;;;;20.10;8.07;;;7.60;91.30;;;;;;5112698;28;20971;-70
2021/05/02 00:20:07;;;;;;;15.47;7.90;;;7.60;91.40;;;;;;5112578;28;20305;-69
2021/05/02 00:22:36;;;;;;;12.37;7.37;;;7.60;91.30;;;;;;5112902;28;20657;-70
2021/05/02 00:25:05;;;;;;;15.73;8.03;;;7.60;91.40;;;;;;5111802;28;20301;-70
2021/05/02 00:27:31;;;;;;;17.03;8.03;;;7.60;91.30;;;;;;5113128;28;20309;-70
2021/05/02 00:29:57;;;;;;;29.10;8.40;;;7.50;91.40;;;;;;5111577;28;20296;-70
2021/05/02 00:32:24;;;;;;;22.20;8.93;;;7.50;91.30;;;;;;5112702;28;20088;-69
2021/05/02 00:34:50;;;;;;;22.10;8.37;;;7.50;91.40;;;;;;5112499;28;20143;-70
2021/05/02 00:37:17;;;;;;;17.90;7.60;;;7.50;91.40;;;;;;5111924;28;20340;-70
2021/05/02 00:39:43;;;;;;;23.07;7.83;;;7.50;91.40;;;;;;5112437;28;20309;-70
2021/05/02 00:42:19;;;;;;;22.50;8.67;;;7.50;91.30;;;;;;5112301;28;20316;-70
2021/05/02 00:45:07;;;;;;;16.77;7.63;;;7.50;91.40;;;;;;5111853;28;20047;-70
2021/05/02 00:47:38;;;;;;;22.27;9.33;;;7.50;91.40;;;;;;5112738;28;20301;-70
2021/05/02 00:50:08;;;;;;;21.73;8.60;;;7.50;91.50;;;;;;5112350;28;20328;-70
2021/05/02 00:52:46;;;;;;;24.40;8.70;;;7.50;91.40;;;;;;5111811;28;20325;-70
2021/05/02 00:55:15;;;;;;;19.80;8.47;;;7.50;91.40;;;;;;5112280;28;20298;-70
2021/05/02 00:57:56;;;;;;;16.70;8.37;;;7.50;91.40;;;;;;5112033;28;20380;-71
2021/05/02 01:00:29;;;;;;;17.33;8.97;;;7.50;91.40;;;;;;5112623;28;20296;-70
2021/05/02 01:03:06;;;;;;;25.93;8.83;;;7.60;91.40;;;;;;5111711;28;20818;-71
2021/05/02 01:05:33;;;;;;;22.60;8.83;;;7.60;91.30;;;;;;5111717;28;20301;-71
2021/05/02 01:08:02;;;;;;;21.03;8.80;;;7.70;91.30;;;;;;5111606;28;20293;-70
2021/05/02 01:10:28;;;;;;;22.37;9.27;;;7.70;91.30;;;;;;5112449;28;20297;-71
2021/05/02 01:12:57;;;;;;;23.57;9.73;;;7.70;91.30;;;;;;5111369;28;20305;-70
2021/05/02 01:15:27;;;;;;;19.47;8.70;;;7.70;91.30;;;;;;5112475;28;20328;-70
2021/05/02 01:17:59;;;;;;;25.93;8.30;;;7.80;91.30;;;;;;5111962;28;20662;-71
2021/05/02 01:20:36;;;;;;;18.80;9.13;;;7.70;91.20;;;;;;5111560;28;20344;-70
2021/05/02 01:23:10;;;;;;;23.93;8.50;;;7.70;91.20;;;;;;5111819;28;20349;-71
2021/05/02 01:25:37;;;;;;;19.13;9.00;;;7.80;91.30;;;;;;5112221;28;20332;-69
2021/05/02 01:28:04;;;;;;;23.43;9.10;;;7.80;91.30;;;;;;5110877;28;20377;-70
2021/05/02 01:30:30;;;;;;;20.00;8.67;;;7.80;91.60;;;;;;5111982;28;20298;-70
2021/05/02 01:32:56;;;;;;;14.87;7.33;;;7.80;91.70;;;;;;5111469;28;20354;-70
2021/05/02 01:35:22;;;;;;;13.47;7.90;;;7.80;91.30;;;;;;5111144;28;20784;-70
2021/05/02 01:37:50;;;;;;;18.33;7.97;;;7.80;91.30;;;;;;5111776;28;20298;-70
2021/05/02 01:40:18;;;;;;;21.63;7.87;;;7.80;91.30;;;;;;5110779;28;20830;-70
2021/05/02 01:42:45;;;;;;;23.43;7.77;;;7.80;91.30;;;;;;5111615;28;20712;-70
2021/05/02 01:45:11;;;;;;;13.70;7.87;;;7.80;91.30;;;;;;5111598;28;20294;-70
2021/05/02 01:47:49;;;;;;;17.67;7.60;;;7.80;91.20;;;;;;5111210;28;20353;-70
2021/05/02 01:50:18;;;;;;;18.13;7.33;;;7.80;91.30;;;;;;5111808;28;20134;-70
2021/05/02 01:52:51;;;;;;;16.45;6.63;;;7.80;91.20;;;;;;5111811;28;20297;-70
2021/05/02 01:55:17;;;;;;;20.93;8.13;;;7.80;91.20;;;;;;5110970;28;20044;-69
2021/05/02 01:57:45;;;;;;;16.77;8.07;;;7.80;91.20;;;;;;5111487;28;20350;-70
2021/05/02 02:00:25;;;;;;;15.83;7.63;;;7.80;91.10;;;;;;5111521;28;20386;-70
2021/05/02 02:02:59;;;;;;;14.73;7.63;;;7.80;91.10;;;;;;5110961;28;20366;-70
2021/05/02 02:05:25;;;;;;;14.87;6.80;;;7.80;91.00;;;;;;5111873;28;20281;-71
2021/05/02 02:07:51;;;;;;;15.53;7.07;;;7.70;91.00;;;;;;5111439;28;20297;-71
2021/05/02 02:10:21;;;;;;;16.07;6.50;;;7.70;91.00;;;;;;5110657;28;20778;-71
2021/05/02 02:12:51;;;;;;;21.40;7.67;;;7.70;91.00;;;;;;5111507;28;20297;-69
2021/05/02 02:15:17;;;;;;;17.47;6.43;;;7.70;91.00;;;;;;5111209;28;20709;-70
2021/05/02 02:17:43;;;;;;;12.10;6.27;;;7.70;90.90;;;;;;5112725;28;20297;-71
2021/05/02 02:20:09;;;;;;;16.20;6.87;;;7.70;90.90;;;;;;5115283;28;20385;-70
2021/05/02 02:22:37;;;;;;;14.80;7.47;;;7.60;90.90;;;;;;5114674;28;20075;-70
2021/05/02 02:25:05;;;;;;;12.00;6.40;;;7.60;91.00;;;;;;5114728;28;20294;-70
2021/05/02 02:27:31;;;;;;;17.87;6.87;;;7.60;91.30;;;;;;5115669;28;20334;-70
2021/05/02 02:30:00;;;;;;;11.20;6.20;;;7.60;91.00;;;;;;5114200;28;20308;-70
2021/05/02 02:32:45;;;;;;;14.13;6.53;;;7.60;91.00;;;;;;5115341;28;20293;-70
2021/05/02 02:35:16;;;;;;;15.27;6.40;;;7.60;91.00;;;;;;5115091;28;20301;-69
2021/05/02 02:37:46;;;;;;;12.50;6.37;;;7.60;90.90;;;;;;5114098;28;20293;-71
2021/05/02 02:40:15;;;;;;;14.00;6.03;;;7.60;90.90;;;;;;5114852;28;20405;-70
2021/05/02 02:42:45;;;;;;;11.17;6.23;;;7.60;90.80;;;;;;5114846;28;20465;-71
2021/05/02 02:45:11;;;;;;;13.23;5.90;;;7.60;90.80;;;;;;5114540;28;20686;-69
2021/05/02 02:47:40;;;;;;;13.33;6.03;;;7.60;90.80;;;;;;5114953;28;20301;-70
2021/05/02 02:50:11;;;;;;;11.97;5.63;;;7.50;90.70;;;;;;5114720;28;20411;-70
2021/05/02 02:52:49;;;;;;;10.93;6.22;;;7.50;90.70;;;;;;5114417;28;20285;-69
2021/05/02 02:55:17;;;;;;;13.93;6.17;;;7.50;90.80;;;;;;5114809;28;20043;-70
2021/05/02 02:57:51;;;;;;;12.73;6.03;;;7.50;90.80;;;;;;5113882;28;20294;-70
2021/05/02 03:00:22;;;;;;;17.30;5.60;;;7.50;90.80;;;;;;5114512;28;20289;-70
2021/05/02 03:03:00;;;;;;;11.55;5.90;;;7.50;90.80;;;;;;5114621;28;20309;-70
2021/05/02 03:05:27;;;;;;;16.63;5.97;;;7.50;90.80;;;;;;5114107;28;20073;-70
2021/05/02 03:07:53;;;;;;;9.70;5.63;;;7.40;90.80;;;;;;5114402;28;20680;-70
2021/05/02 03:10:20;;;;;;;10.73;4.97;;;7.50;90.80;;;;;;5114037;28;20342;-69
2021/05/02 03:12:48;;;;;;;12.70;5.33;;;7.50;90.90;;;;;;5113600;28;20309;-70
2021/05/02 03:15:14;;;;;;;12.07;5.20;;;7.40;90.90;;;;;;5114113;28;20297;-71
2021/05/02 03:17:46;;;;;;;10.60;4.87;;;7.40;90.90;;;;;;5114504;28;20580;-71
2021/05/02 03:20:15;;;;;;;12.37;5.07;;;7.40;90.90;;;;;;5113256;28;20547;-71
2021/05/02 03:22:49;;;;;;;8.97;4.57;;;7.40;90.80;;;;;;5114063;28;20309;-71
2021/05/02 03:25:21;;;;;;;10.27;4.47;;;7.40;90.80;;;;;;5114113;28;20293;-70
2021/05/02 03:27:53;;;;;;;9.63;4.05;;;7.40;90.70;;;;;;5113252;28;20775;-71
2021/05/02 03:30:21;;;;;;;13.48;4.07;;;7.40;90.60;;;;;;5112877;28;20101;-70
2021/05/02 03:32:49;;;;;;;10.33;3.47;;;7.40;90.60;;;;;;5113243;28;20124;-71
2021/05/02 03:35:17;;;;;;;8.57;3.00;;;7.40;90.50;;;;;;5113952;28;20952;-70
2021/05/02 03:37:49;;;;;;;5.73;3.37;;;7.30;90.50;;;;;;5113697;28;20308;-70
2021/05/02 03:40:16;;;;;;;8.50;3.73;;;7.40;90.50;;;;;;5112936;28;20313;-71
2021/05/02 03:42:42;;;;;;;8.33;2.70;;;7.30;90.30;;;;;;5113779;28;20306;-70
2021/05/02 03:45:08;;;;;;;10.43;3.10;;;7.30;90.20;;;;;;5113897;28;20308;-70
2021/05/02 03:47:34;;;;;;;8.83;2.77;;;7.30;90.20;;;;;;5113292;28;20047;-70
2021/05/02 03:49:59;;;;;;;7.40;2.60;;;7.20;90.00;;;;;;5113417;28;20316;-69
2021/05/02 03:52:25;;;;;;;8.60;3.00;;;7.20;90.00;;;;;;5113673;28;20047;-69
2021/05/02 03:54:55;;;;;;;4.97;2.50;;;7.20;90.00;;;;;;5112709;28;20063;-70
2021/05/02 03:57:21;;;;;;;9.50;2.97;;;7.20;90.00;;;;;;5113885;28;20055;-70
2021/05/02 03:59:47;;;;;;;8.30;3.00;;;7.20;89.70;;;;;;5113377;28;20680;-71
2021/05/02 04:02:14;;;;;;;9.30;3.27;;;7.20;89.70;;;;;;5112363;28;20130;-70
2021/05/02 04:04:41;;;;;;;3.43;2.20;;;7.20;89.70;;;;;;5113454;28;20139;-71
2021/05/02 04:07:12;;;;;;;8.57;2.87;;;7.20;89.70;;;;;;5113144;28;20305;-70
2021/05/02 04:09:40;;;;;;;5.73;2.53;;;7.20;89.60;;;;;;5112825;28;20346;-70
2021/05/02 04:12:07;;;;;;;4.47;2.10;;;7.20;89.60;;;;;;5113333;28;20654;-70
2021/05/02 04:14:33;;;;;;;4.13;2.00;;;7.20;89.50;;;;;;5113429;28;20285;-70
2021/05/02 04:17:06;;;;;;;4.97;1.80;;;7.10;90.10;;;;;;5111976;28;20301;-70
2021/05/02 04:19:34;;;;;;;8.97;2.73;;;7.10;89.20;;;;;;5113157;28;20170;-71
2021/05/02 04:22:00;;;;;;;11.07;2.53;;;7.10;89.10;;;;;;5111701;28;20355;-71
2021/05/02 04:24:26;;;;;;;4.07;2.00;;;7.10;88.90;;;;;;5113208;28;20662;-70
2021/05/02 04:26:54;;;;;;;6.50;2.30;;;7.10;88.70;;;;;;5112781;28;20084;-70
2021/05/02 04:29:24;;;;;;;5.43;2.30;;;7.10;88.40;;;;;;5112194;28;20071;-70
2021/05/02 04:31:50;;;;;;;5.90;2.20;;;7.10;88.20;;;;;;5112829;28;20329;-70
2021/05/02 04:34:16;;;;;;;5.83;2.30;;;7.10;88.10;;;;;;5112467;28;20773;-71
2021/05/02 04:36:42;;;;;;;3.30;2.20;;;7.10;88.10;;;;;;5111987;28;20321;-71
2021/05/02 04:39:08;;;;;;;8.07;2.40;;;7.00;88.20;;;;;;5112475;28;20754;-70
2021/05/02 04:41:33;;;;;;;5.70;2.13;;;7.00;88.00;;;;;;5112315;28;20055;-70
2021/05/02 04:43:59;;;;;;;6.63;2.50;;;7.00;88.20;;;;;;5111377;28;20047;-71
2021/05/02 04:46:25;;;;;;;4.30;2.60;;;7.00;88.10;;;;;;5112627;28;20051;-71
2021/05/02 04:48:53;;;;;;;4.67;2.23;;;7.10;88.10;;;;;;5112216;28;20058;-71
2021/05/02 04:51:20;;;;;;;5.87;2.70;;;7.10;88.10;;;;;;5111814;28;20301;-71
2021/05/02 04:53:46;;;;;;;5.70;2.53;;;7.10;88.10;;;;;;5112334;28;20403;-71
2021/05/02 04:56:13;;;;;;;4.50;2.00;;;7.10;88.00;;;;;;5112328;28;20301;-70
2021/05/02 04:58:38;;;;;;;6.47;2.20;;;7.10;87.90;;;;;;5111718;28;20389;-71
2021/05/02 05:01:05;;;;;;;5.30;2.40;;;7.10;87.60;;;;;;5111742;28;20384;-71
2021/05/02 05:03:32;;;;;;;6.50;2.57;;;7.10;87.60;;;;;;5112129;28;20055;-71
2021/05/02 05:05:58;;;;;;;6.80;2.30;;;7.10;87.40;;;;;;5111099;28;20391;-71
2021/05/02 05:08:24;;;;;;;5.63;2.33;;;7.10;87.30;;;;;;5112237;28;20350;-71
2021/05/02 05:10:50;;;;;;;7.30;2.50;;;7.10;87.30;;;;;;5111991;28;20318;-71
2021/05/02 05:13:16;;;;;;;13.00;2.60;;;7.20;87.10;;;;;;5111119;28;20327;-71
2021/05/02 05:15:41;;;;;;;5.47;2.60;;;7.20;87.10;;;;;;5111721;28;20044;-70
2021/05/02 05:18:07;;;;;;;11.07;3.43;;;7.20;87.20;;;;;;5111848;28;20116;-70
2021/05/02 05:20:33;;;;;;;9.20;2.93;;;7.30;87.10;;;;;;5111510;28;20093;-70
2021/05/02 05:22:58;;;;;;;8.13;2.97;;;7.20;86.70;;;;;;5111477;28;20050;-71
2021/05/02 05:25:24;;;;;;;6.73;2.83;;;7.30;86.90;;;;;;5111412;28;20552;-70
2021/05/02 05:27:49;;;;;;;6.33;3.07;;;7.30;86.70;;;;;;5111638;28;20070;-70
2021/05/02 05:30:15;;;;;;;7.67;3.00;;;7.40;86.70;;;;;;5111662;28;20411;-71
2021/05/02 05:32:41;;;;;;;6.50;2.80;;;7.40;86.50;;;;;;5110851;28;20075;-70
2021/05/02 05:35:08;;;;;;;10.93;2.90;;;7.40;86.50;;;;;;5111704;28;20393;-70
2021/05/02 05:37:33;;;;;;;7.17;3.20;;;7.40;86.50;;;;;;5111873;28;20519;-70
2021/05/02 05:39:59;;;;;;;10.10;2.93;;;7.50;86.30;;;;;;5105635;28;20332;-71
2021/05/02 05:42:25;;;;;;;8.00;2.90;;;7.50;86.00;;;;;;5111912;28;20051;-71
2021/05/02 05:44:50;;;;;;;7.57;3.27;;;7.60;86.00;;;;;;5111414;28;20069;-71
2021/05/02 05:47:17;;;;;;;12.03;3.50;;;7.60;86.00;;;;;;5110612;28;20044;-71
2021/05/02 05:49:43;;;;;;;6.23;3.03;;;7.60;85.70;;;;;;5111701;28;20396;-71
2021/05/02 05:52:09;;;;;;;9.93;2.93;;;7.70;85.40;;;;;;5112194;28;20301;-71
2021/05/02 05:54:36;;;;;;;4.17;2.60;;;7.70;85.40;;;;;;5115389;28;20130;-70
2021/05/02 05:57:02;;;;;;;8.53;2.63;;;7.70;85.40;;;;;;5115576;28;20353;-71
2021/05/02 05:59:28;;;;;;;8.00;2.93;;;7.80;85.20;;;;;;5115918;28;20300;-72
2021/05/02 06:01:54;;;;;;;7.73;3.10;;;7.80;84.90;;;;;;5114758;28;20317;-72
2021/05/02 06:04:20;;;;;;;7.63;2.80;;;7.90;84.90;;;;;;5116045;28;20047;-71
2021/05/02 06:06:45;;;;;;;10.67;3.03;;;7.90;84.50;;;;;;5115582;28;20376;-71
2021/05/02 06:09:12;;;;;;;6.20;3.10;;;8.00;84.60;;;;;;5114847;28;20443;-70
2021/05/02 06:11:37;;;;;;;5.70;2.47;;;8.00;84.70;;;;;;5115763;28;20308;-71
2021/05/02 06:14:05;;;;;;;9.60;3.37;;;8.00;84.60;;;;;;5115058;28;20073;-71
2021/05/02 06:16:30;;;;;;;6.23;2.67;;;7.90;84.50;;;;;;5114860;28;20143;-71
2021/05/02 06:18:57;;;;;;;4.57;2.60;;;7.90;84.80;;;;;;5115000;28;20638;-71
2021/05/02 06:21:24;;;;;;;5.90;3.03;;;7.90;84.90;;;;;;5115694;28;20436;-71
2021/05/02 06:23:51;;;;;;;7.20;2.93;;;7.90;85.00;;;;;;5114439;28;20352;-71
2021/05/02 06:26:19;;;;;;;5.73;2.60;;;7.80;85.00;;;;;;5115178;28;20704;-71
2021/05/02 06:28:49;;;;;;;4.00;2.60;;;7.80;85.20;;;;;;5114455;28;20439;-71
2021/05/02 06:31:16;;;;;;;5.97;2.33;;;7.90;85.60;;;;;;5115191;28;20366;-72
2021/05/02 06:33:42;;;;;;;6.17;2.60;;;7.90;84.80;;;;;;5115220;28;20305;-72
2021/05/02 06:36:08;;;;;;;3.30;2.40;;;8.00;84.60;;;;;;5114264;28;20350;-69
2021/05/02 06:38:37;;;;;;;6.00;2.47;;;7.90;84.50;;;;;;5115191;28;20309;-71
2021/05/02 06:41:03;;;;;;;4.37;2.63;;;8.00;84.60;;;;;;5114383;28;20051;-72
2021/05/02 06:43:29;;;;;;;4.17;2.60;;;8.10;83.90;;;;;;5114052;28;20317;-71
2021/05/02 06:45:55;;;;;;;4.90;1.73;;;8.10;83.20;;;;;;5114569;28;20789;-71
2021/05/02 06:48:20;;;;;;;2.10;1.70;;;8.40;83.60;;;;;;5114920;28;20047;-69
2021/05/02 06:50:46;;;;;;;5.30;1.67;;;8.80;82.60;;;;;;5113883;28;20047;-72
2021/05/02 06:53:12;;;;;;;4.53;2.10;;;9.00;81.20;;;;;;5113372;28;20047;-70
2021/05/02 06:55:38;;;;;;;5.87;1.87;;;9.10;80.70;;;;;;5114733;28;20071;-71
2021/05/02 06:58:03;;;;;;;2.33;1.27;;;9.10;80.90;;;;;;5113255;28;20092;-71
2021/05/02 07:00:29;;;;;;;3.57;1.40;;;9.10;79.90;;;;;;5114654;28;20082;-71
2021/05/02 07:02:55;;;;;;;1.90;1.37;;;9.20;79.60;;;;;;5113838;28;20100;-71
2021/05/02 07:05:21;;;;;;;3.73;1.40;;;9.20;79.50;;;;;;5114013;28;20754;-71
2021/05/02 07:07:47;;;;;;;3.80;1.70;;;9.20;79.70;;;;;;5114360;28;20052;-70
2021/05/02 07:10:14;;;;;;;3.97;2.10;;;9.00;80.10;;;;;;5112651;28;20354;-70
2021/05/02 07:12:41;;;;;;;4.20;1.80;;;8.90;80.50;;;;;;5113726;28;20306;-71
2021/05/02 07:15:09;;;;;;;2.90;1.43;;;8.60;81.20;;;;;;5114201;28;20299;-71
2021/05/02 07:17:35;;;;;;;6.80;2.20;;;8.40;81.70;;;;;;5114502;28;20384;-69
2021/05/02 07:20:00;;;;;;;7.23;2.30;;;8.20;82.30;;;;;;5113186;28;20388;-70
2021/05/02 07:22:28;;;;;;;4.53;2.00;;;8.20;83.10;;;;;;5114165;28;20048;-71
2021/05/02 07:24:54;;;;;;;4.07;2.33;;;8.20;83.50;;;;;;5112868;28;20055;-71
2021/05/02 07:27:20;;;;;;;4.30;2.60;;;8.20;83.60;;;;;;5114371;28;20634;-70
2021/05/02 07:29:46;;;;;;;3.37;2.03;;;8.20;83.80;;;;;;5113943;28;20496;-70
2021/05/02 07:32:12;;;;;;;6.87;2.17;;;8.20;84.00;;;;;;5113324;28;20135;-70
2021/05/02 07:34:37;;;;;;;2.17;1.60;;;8.20;83.90;;;;;;5114090;28;20321;-70
2021/05/02 07:37:03;;;;;;;3.33;2.00;;;8.20;84.50;;;;;;5113400;28;20104;-71
2021/05/02 07:39:29;;;;;;;4.23;2.40;;;8.50;84.80;;;;;;5113048;28;20047;-71
2021/05/02 07:41:55;;;;;;;4.67;1.83;;;8.90;84.70;;;;;;5113031;28;20392;-71
2021/05/02 07:44:21;;;;;;;6.23;2.70;;;9.10;84.20;;;;;;5114117;28;20043;-70
2021/05/02 07:46:47;;;;;;;4.93;2.30;;;9.20;83.60;;;;;;5112957;28;20047;-70
2021/05/02 07:49:12;;;;;;;5.70;1.90;;;9.40;83.60;;;;;;5113279;28;20305;-70
2021/05/02 07:51:38;;;;;;;5.37;2.50;;;9.60;82.80;;;;;;5113817;28;20047;-70
2021/05/02 07:54:04;;;;;;;5.33;2.90;;;9.70;82.10;;;;;;5112645;28;20500;-71
2021/05/02 07:56:30;;;;;;;6.27;2.40;;;9.80;82.10;;;;;;5113574;28;20092;-69
2021/05/02 07:58:56;;;;;;;5.63;2.03;;;9.80;82.20;;;;;;5113183;28;20052;-71
2021/05/02 08:01:22;;;;;;;7.80;2.17;;;9.80;81.30;;;;;;5112852;28;20043;-71
2021/05/02 08:03:50;;;;;;;4.57;2.30;;;9.70;82.10;;;;;;5113136;28;20055;-72
2021/05/02 08:06:16;;;;;;;4.23;2.00;;;9.70;81.10;;;;;;5113041;28;20130;-70
2021/05/02 08:08:42;;;;;;;5.07;2.37;;;9.60;80.40;;;;;;5112377;28;20135;-71
2021/05/02 08:11:08;;;;;;;3.63;1.90;;;9.60;81.40;;;;;;5112594;28;20051;-71
2021/05/02 08:13:33;;;;;;;5.77;2.03;;;9.80;80.70;;;;;;5113248;28;20052;-71
2021/05/02 08:15:59;;;;;;;2.57;1.43;;;10.20;80.20;;;;;;5111510;28;20425;-72
2021/05/02 08:18:25;;;;;;;8.37;2.57;;;10.50;78.80;;;;;;5113358;28;20129;-71
2021/05/02 08:20:50;;;;;;;6.53;1.60;;;11.00;76.70;;;;;;5112977;28;20035;-71
2021/05/02 08:23:16;;;;;;;4.77;1.67;;;11.20;75.10;;;;;;5111771;28;20048;-72
2021/05/02 08:25:42;;;;;;;3.50;1.60;;;11.40;74.60;;;;;;5112910;28;20067;-72
2021/05/02 08:28:07;;;;;;;6.37;1.80;;;11.80;74.70;;;;;;5112152;28;20051;-73
2021/05/02 08:30:33;;;;;;;3.63;1.50;;;12.10;73.80;;;;;;5112979;28;20054;-71
2021/05/02 08:32:59;;;;;;;2.77;1.20;;;11.90;72.10;;;;;;5112569;28;20135;-72
2021/05/02 08:35:25;;;;;;;2.27;1.47;;;11.60;70.40;;;;;;5112328;28;20055;-72
2021/05/02 08:37:51;;;;;;;2.83;1.50;;;11.30;70.20;;;;;;5112405;28;20420;-71
2021/05/02 08:40:16;;;;;;;3.93;1.50;;;11.00;70.30;;;;;;5112404;28;20478;-70
2021/05/02 08:42:42;;;;;;;3.77;1.73;;;10.90;70.70;;;;;;5111877;28;20043;-72
2021/05/02 08:45:09;;;;;;;8.87;2.43;;;11.20;71.30;;;;;;5112553;28;20504;-70
2021/05/02 08:47:36;;;;;;;5.50;1.77;;;11.50;71.00;;;;;;5112948;28;20048;-72
2021/05/02 08:50:07;;;;;;;4.60;1.63;;;11.40;70.60;;;;;;5111493;28;20043;-72
2021/05/02 08:52:33;;;;;;;4.47;1.53;;;11.10;70.20;;;;;;5112359;28;20047;-71
2021/05/02 08:54:58;;;;;;;4.13;1.73;;;10.70;69.90;;;;;;5112029;28;20050;-71
2021/05/02 08:57:24;;;;;;;5.17;1.93;;;10.40;70.20;;;;;;5111832;28;20054;-71
2021/05/02 08:59:50;;;;;;;4.47;1.80;;;10.10;70.40;;;;;;5112352;28;20055;-70
2021/05/02 09:02:27;;;;;;;7.37;1.67;;;9.90;71.50;;;;;;5112152;28;20082;-71
2021/05/02 09:04:56;;;;;;;4.80;1.80;;;9.80;70.80;;;;;;5111144;28;20070;-71
2021/05/02 09:07:23;;;;;;;6.13;2.07;;;9.70;71.40;;;;;;5112102;28;20109;-72
2021/05/02 09:09:49;;;;;;;4.50;1.80;;;9.60;71.60;;;;;;5112228;28;20047;-70
2021/05/02 09:12:24;;;;;;;7.73;2.10;;;9.60;72.20;;;;;;5111180;28;20096;-71
2021/05/02 09:14:52;;;;;;;13.73;2.30;;;9.60;72.40;;;;;;5111935;28;20051;-70
2021/05/02 09:17:28;;;;;;;7.87;2.50;;;9.70;72.70;;;;;;5112008;28;20146;-70
2021/05/02 09:19:58;;;;;;;7.27;2.10;;;9.80;72.30;;;;;;5112007;28;20061;-69
2021/05/02 09:22:24;;;;;;;4.27;2.17;;;9.80;72.00;;;;;;5111903;28;20408;-69
2021/05/02 09:25:11;;;;;;;6.17;2.00;;;9.90;72.30;;;;;;5111214;28;20126;-69
2021/05/02 09:27:49;;;;;;;10.60;2.00;;;10.10;71.60;;;;;;5111187;28;20067;-69
2021/05/02 09:30:17;;;;;;;6.17;2.67;;;10.30;71.60;;;;;;5111672;28;20047;-69
2021/05/02 09:32:48;;;;;;;6.73;2.40;;;10.20;71.70;;;;;;5110859;28;20071;-70
2021/05/02 09:35:28;;;;;;;7.07;2.43;;;10.20;71.70;;;;;;5111699;28;20067;-70
2021/05/02 09:38:14;;;;;;;7.40;2.23;;;10.10;71.90;;;;;;5111695;28;20044;-70
2021/05/02 09:40:47;;;;;;;;;;;10.10;71.90;;;;;;5110707;28;20079;-69
2021/05/02 09:43:36;;;;;;;4.83;2.27;;;10.00;71.50;;;;;;5111319;28;20004;-70
2021/05/02 09:46:26;;;;;;;8.30;1.93;;;10.30;71.80;;;;;;5101931;28;20050;-70
2021/05/02 09:49:13;;;;;;;4.27;1.87;;;10.60;72.00;;;;;;5111154;28;20398;-70
2021/05/02 09:51:51;;;;;;;8.17;2.47;;;10.80;70.80;;;;;;5111684;28;20412;-70
2021/05/02 09:54:18;;;;;;;6.03;2.13;;;10.60;69.20;;;;;;5110386;28;20519;-70
2021/05/02 09:56:47;;;;;;;5.47;1.90;;;10.40;69.50;;;;;;5104118;28;20044;-79
2021/05/02 09:59:31;;;;;;;6.13;2.13;;;10.20;69.90;;;;;;5108046;28;20070;-79
2021/05/02 10:02:12;;;;;;;3.33;1.47;;;9.90;70.40;;;;;;5107644;28;20472;-74
2021/05/02 10:04:56;;;;;;;5.73;1.50;;;9.60;71.30;;;;;;5108310;28;20171;-74
2021/05/02 10:07:26;;;;;;;5.40;2.07;;;9.50;72.20;;;;;;5107066;28;20123;-73
2021/05/02 10:09:53;;;;;;;3.30;1.50;;;9.60;73.10;;;;;;5108013;28;20305;-71
2021/05/02 10:12:20;;;;;;;7.37;2.07;;;9.70;71.40;;;;;;5107469;28;20351;-71
2021/05/02 10:14:47;;;;;;;4.63;1.90;;;9.50;71.60;;;;;;5103994;28;20305;-71
2021/05/02 10:17:13;;;;;;;5.80;1.77;;;9.50;72.20;;;;;;5107675;28;20350;-70
2021/05/02 10:19:39;;;;;;;5.30;2.03;;;9.50;71.60;;;;;;5108171;28;20329;-72
2021/05/02 10:22:09;;;;;;;2.70;1.40;;;9.50;71.20;;;;;;5103730;28;20320;-72
2021/05/02 10:24:35;;;;;;;8.13;1.80;;;9.40;71.50;;;;;;5107960;28;20300;-69
2021/05/02 10:27:06;;;;;;;3.97;1.80;;;9.50;71.60;;;;;;5107216;28;20051;-73
2021/05/02 10:29:33;;;;;;;4.80;1.98;;;9.70;71.40;;;;;;5106844;28;20506;-73
2021/05/02 10:32:01;;;;;;;4.30;1.87;;;9.90;71.20;;;;;;5106949;28;20040;-73
2021/05/02 10:34:32;;;;;;;8.40;2.70;;;10.00;71.20;;;;;;5107500;28;20542;-74
2021/05/02 10:37:23;;;;;;;5.05;2.50;;;10.00;71.30;;;;;;5106914;28;20051;-74
2021/05/02 10:40:22;;;;;;;6.03;2.13;;;10.00;71.20;;;;;;5108412;28;20051;-70
2021/05/02 10:43:01;;;;;;;4.93;2.10;;;10.20;71.90;;;;;;5110157;28;20509;-72
2021/05/02 10:45:37;;;;;;;6.50;2.10;;;10.50;70.80;;;;;;5108851;28;20084;-71
2021/05/02 10:48:07;;;;;;;3.00;1.70;;;10.60;70.10;;;;;;5110565;28;20035;-71
2021/05/02 10:50:35;;;;;;;3.77;1.80;;;10.50;69.40;;;;;;5110809;28;20082;-71
2021/05/02 10:53:04;;;;;;;3.47;1.63;;;10.60;68.80;;;;;;5110667;28;20047;-74
2021/05/02 10:55:50;;;;;;;3.73;1.60;;;10.50;68.60;;;;;;5110823;28;20042;-75
2021/05/02 10:58:34;;;;;;;4.97;1.90;;;10.40;66.60;;;;;;5110033;28;20122;-74
2021/05/02 11:01:26;;;;;;;5.57;1.70;;;10.10;67.70;;;;;;5109825;28;20093;-77
2021/05/02 11:03:53;;;;;;;5.10;1.73;;;10.10;68.50;;;;;;5101960;28;20465;-77
2021/05/02 11:06:37;;;;;;;4.90;2.00;;;10.10;68.80;;;;;;5110561;28;20302;-78
2021/05/02 11:09:04;;;;;;;4.33;2.00;;;10.00;69.10;;;;;;5109965;28;20367;-74
2021/05/02 11:11:30;;;;;;;5.47;1.77;;;10.10;69.30;;;;;;5109867;28;20158;-74
2021/05/02 11:16:38;;;;;;;5.27;2.37;;;9.90;69.00;;;;;;5109188;28;20049;-76
2021/05/02 11:19:05;;;;;;;5.40;2.30;;;9.80;71.20;;;;;;5109645;28;20488;-73
2021/05/02 11:21:46;;;;;;;3.73;2.03;;;9.70;71.90;;;;;;5110625;28;20297;-74
2021/05/02 11:24:16;;;;;;;5.90;2.00;;;9.60;72.90;;;;;;5110198;28;20048;-73
2021/05/02 11:26:48;;;;;;;3.27;1.87;;;9.50;72.80;;;;;;5110339;28;20305;-73
2021/05/02 11:29:20;;;;;;;5.20;1.90;;;9.40;73.10;;;;;;5110340;28;20479;-73
2021/05/02 11:31:46;;;;;;;5.18;2.08;;;9.40;73.20;;;;;;5109453;28;20048;-71
2021/05/02 11:34:12;;;;;;;5.87;2.67;;;9.40;73.30;;;;;;5110368;28;20550;-71
2021/05/02 11:36:39;;;;;;;3.70;2.00;;;9.50;74.20;;;;;;5110470;28;20055;-76
2021/05/02 11:39:06;;;;;;;3.30;1.70;;;9.50;72.90;;;;;;5109055;28;20054;-75
2021/05/02 11:42:00;;;;;;;5.30;2.00;;;9.70;72.90;;;;;;5109598;28;20643;-74
2021/05/02 11:44:27;;;;;;;4.20;1.90;;;9.90;72.60;;;;;;5105721;28;20050;-73
2021/05/02 11:46:52;;;;;;;4.53;1.90;;;10.10;71.90;;;;;;5108922;28;21059;-72
2021/05/02 11:49:18;;;;;;;3.13;1.27;;;10.20;70.70;;;;;;5109037;28;20042;-73
2021/05/02 11:51:57;;;;;;;3.93;2.10;;;10.20;69.30;;;;;;5108621;28;20274;-75
2021/05/02 11:54:23;;;;;;;5.03;2.10;;;10.30;69.20;;;;;;5107158;28;20126;-78
2021/05/02 11:56:51;;;;;;;3.63;1.50;;;10.30;69.10;;;;;;5109438;28;20204;-77
2021/05/02 11:59:18;;;;;;;1.90;1.40;;;10.40;68.30;;;;;;5108884;28;20176;-77
2021/05/02 12:01:47;;;;;;;3.10;1.33;;;10.50;67.70;;;;;;5109456;28;20126;-79
2021/05/02 12:04:19;;;;;;;3.67;1.43;;;10.60;66.80;;;;;;5109742;28;20407;-80
2021/05/02 12:06:46;;;;;;;4.65;1.65;;;10.60;67.20;;;;;;5106450;28;20096;-75
2021/05/02 12:09:19;;;;;;;2.77;1.70;;;10.60;67.30;;;;;;5109212;28;20043;-71
2021/05/02 12:11:54;;;;;;;5.30;1.90;;;10.70;67.10;;;;;;5107360;28;20048;-74
2021/05/02 12:14:22;;;;;;;3.53;1.63;;;10.80;67.60;;;;;;5108724;28;20507;-73
2021/05/02 12:16:52;;;;;;;3.00;1.80;;;10.70;66.40;;;;;;5109707;28;20044;-73
2021/05/02 12:19:19;;;;;;;3.50;1.90;;;10.60;67.20;;;;;;5109545;28;20492;-72
2021/05/02 12:21:49;;;;;;;6.37;2.07;;;10.60;67.80;;;;;;5108710;28;20084;-74
2021/05/02 12:24:28;;;;;;;4.67;2.00;;;10.70;68.10;;;;;;5110093;28;20051;-72
2021/05/02 12:27:03;;;;;;;7.37;2.63;;;10.70;67.50;;;;;;5109307;28;20470;-72
2021/05/02 12:29:31;;;;;;;4.17;1.70;;;10.80;67.50;;;;;;5108756;28;20104;-72
2021/05/02 12:32:09;;;;;;;4.73;1.70;;;10.80;67.10;;;;;;5108689;28;20044;-72
2021/05/02 12:34:46;;;;;;;4.03;1.87;;;10.90;66.80;;;;;;5109018;28;20057;-72
2021/05/02 12:37:13;;;;;;;5.30;1.40;;;10.80;66.40;;;;;;5109312;28;20052;-73
2021/05/02 12:39:41;;;;;;;4.40;1.57;;;10.80;66.20;;;;;;5108831;28;20078;-71
2021/05/02 12:42:08;;;;;;;4.70;1.53;;;10.80;66.20;;;;;;5108272;28;20043;-72
2021/05/02 12:44:35;;;;;;;6.13;1.73;;;10.80;65.90;;;;;;5109719;28;20071;-74
2021/05/02 12:47:27;;;;;;;6.90;1.70;;;10.80;66.20;;;;;;5108558;28;20052;-74
2021/05/02 12:50:06;;;;;;;9.33;1.80;;;10.70;66.60;;;;;;5108562;28;20077;-73
2021/05/02 12:52:39;;;;;;;4.20;1.57;;;10.60;67.20;;;;;;5109633;28;20047;-73
2021/05/02 12:55:26;;;;;;;2.20;1.43;;;10.50;67.50;;;;;;5108407;28;20104;-72
2021/05/02 12:58:01;;;;;;;3.73;1.50;;;10.50;68.60;;;;;;5108897;28;20131;-73
2021/05/02 13:00:47;;;;;;;4.70;1.67;;;10.40;68.00;;;;;;5108825;28;20047;-73
2021/05/02 13:03:47;;;;;;;7.07;2.10;;;10.30;68.10;;;;;;5107361;28;20411;-72
2021/05/02 13:06:14;;;;;;;7.90;2.00;;;10.20;68.10;;;;;;5107127;28;20040;-72